Time;durP1;ratioP1;P1;durP2;ratioP2;P2;SDS_P1;SDS_P2;PMS_P1;PMS_P2;Temp;Humidity;BMP_temperature;BMP_pressure;BME280_temperature;BME280_humidity;BME280_pressure;Samples;Min_cycle;Max_cycle;Signal;HPM_P1;HPM_P2
2022/03/03 00:00:15;;;;;;;;;;;10.30;90.00;;;;;;5083809;28;19909;-73
2022/03/03 00:02:41;;;;;;;;;;;10.20;89.80;;;;;;5083667;28;19954;-73
2022/03/03 00:05:07;;;;;;;;;;;10.20;89.60;;;;;;5078781;28;19908;-73
2022/03/03 00:07:33;;;;;;;;;;;10.10;89.60;;;;;;5084032;28;19916;-73
2022/03/03 00:09:59;;;;;;;;;;;10.10;89.80;;;;;;5065131;28;19946;-73
2022/03/03 00:12:25;;;;;;;;;;;10.00;89.60;;;;;;5079842;28;19916;-73
2022/03/03 00:14:50;;;;;;;;;;;10.00;89.60;;;;;;5080283;28;20367;-73
2022/03/03 00:17:16;;;;;;;;;;;10.00;89.80;;;;;;5080401;28;19908;-73
2022/03/03 00:19:42;;;;;;;;;;;10.00;89.80;;;;;;5062055;28;19991;-73
2022/03/03 00:22:08;;;;;;;;;;;10.00;89.70;;;;;;5080270;28;19915;-73
2022/03/03 00:24:34;;;;;;;;;;;10.10;90.00;;;;;;5080101;28;19915;-73
2022/03/03 00:26:59;;;;;;;;;;;10.10;89.80;;;;;;5080489;28;20356;-73
2022/03/03 00:29:25;;;;;;;;;;;10.10;90.00;;;;;;5080171;28;19915;-73
2022/03/03 00:31:51;;;;;;;;;;;10.10;89.90;;;;;;5080400;28;19919;-73
2022/03/03 00:34:16;;;;;;;;;;;10.10;89.90;;;;;;5079575;28;19919;-73
2022/03/03 00:36:42;;;;;;;;;;;10.20;90.00;;;;;;5079941;28;19947;-73
2022/03/03 00:39:08;;;;;;;;;;;10.20;90.10;;;;;;5079624;28;19957;-72
2022/03/03 00:41:34;;;;;;;;;;;10.20;90.20;;;;;;5080146;28;20007;-73
2022/03/03 00:44:00;;;;;;;;;;;10.20;90.20;;;;;;5079729;28;19960;-73
2022/03/03 00:46:26;;;;;;;;;;;10.20;90.20;;;;;;5066406;28;19920;-73
2022/03/03 00:48:52;;;;;;;;;;;10.20;90.10;;;;;;5079508;28;19999;-73
2022/03/03 00:51:17;;;;;;;;;;;10.20;90.20;;;;;;5080060;28;19935;-73
2022/03/03 00:53:43;;;;;;;;;;;10.10;90.10;;;;;;5079679;28;19908;-73
2022/03/03 00:56:09;;;;;;;;;;;10.10;89.90;;;;;;5079468;28;19912;-72
2022/03/03 00:58:34;;;;;;;;;;;10.10;90.00;;;;;;5079722;28;19908;-73
2022/03/03 01:01:01;;;;;;;;;;;10.10;90.20;;;;;;5079546;28;19909;-73
2022/03/03 01:03:27;;;;;;;;;;;10.00;90.30;;;;;;5074436;28;20287;-73
2022/03/03 01:05:53;;;;;;;;;;;10.00;90.40;;;;;;5079647;28;19912;-73
2022/03/03 01:08:18;;;;;;;;;;;10.00;90.40;;;;;;5079427;28;19962;-73
2022/03/03 01:10:44;;;;;;;;;;;10.00;90.70;;;;;;5079469;28;19908;-73
2022/03/03 01:13:10;;;;;;;;;;;9.90;90.90;;;;;;5079374;28;20390;-73
2022/03/03 01:15:35;;;;;;;;;;;9.90;90.90;;;;;;5079380;28;20291;-73
2022/03/03 01:18:01;;;;;;;;;;;9.90;90.90;;;;;;5061006;28;20375;-73
2022/03/03 01:20:27;;;;;;;;;;;9.90;90.80;;;;;;5079372;28;20287;-73
2022/03/03 01:22:53;;;;;;;;;;;10.00;90.90;;;;;;5060884;28;19909;-73
2022/03/03 01:25:19;;;;;;;;;;;10.00;91.00;;;;;;5079156;28;19909;-73
2022/03/03 01:27:45;;;;;;;;;;;10.00;91.10;;;;;;5079025;28;19972;-73
2022/03/03 01:30:11;;;;;;;;;;;10.00;91.10;;;;;;5061218;28;19966;-73
2022/03/03 01:32:37;;;;;;;;;;;10.00;91.10;;;;;;5060674;28;19958;-73
2022/03/03 01:35:03;;;;;;;;;;;10.00;91.00;;;;;;5078953;28;19920;-73
2022/03/03 01:37:29;;;;;;;;;;;10.00;91.00;;;;;;5060860;28;19908;-73
2022/03/03 01:39:55;;;;;;;;;;;10.00;91.10;;;;;;5078779;28;20393;-73
2022/03/03 01:42:20;;;;;;;;;;;10.10;91.20;;;;;;5078610;28;20406;-73
2022/03/03 01:44:46;;;;;;;;;;;10.00;91.40;;;;;;5054302;28;19968;-73
2022/03/03 01:47:19;;;;;;;;;;;10.10;91.60;;;;;;5071762;28;20001;-73
2022/03/03 01:49:45;;;;;;;;;;;10.10;91.40;;;;;;5065814;28;19909;-73
2022/03/03 01:52:11;;;;;;;;;;;10.10;91.20;;;;;;5078630;28;19919;-73
2022/03/03 01:54:37;;;;;;;;;;;10.10;91.30;;;;;;5060588;28;20443;-73
2022/03/03 01:57:02;;;;;;;;;;;10.10;91.10;;;;;;5078513;28;19909;-72
2022/03/03 01:59:28;;;;;;;;;;;10.20;91.70;;;;;;5060648;28;19956;-73
2022/03/03 02:01:54;;;;;;;;;;;10.20;91.70;;;;;;5078437;28;19916;-72
2022/03/03 02:04:19;;;;;;;;;;;10.30;92.00;;;;;;5073372;28;19986;-72
2022/03/03 02:06:45;;;;;;;;;;;10.30;92.00;;;;;;5078381;28;19977;-73
2022/03/03 02:09:11;;;;;;;;;;;10.30;92.20;;;;;;5078321;28;19912;-72
2022/03/03 02:11:36;;;;;;;;;;;10.30;92.00;;;;;;5078214;28;19909;-73
2022/03/03 02:14:02;;;;;;;;;;;10.30;92.10;;;;;;5078277;28;19951;-73
2022/03/03 02:16:28;;;;;;;;;;;10.30;92.10;;;;;;5060120;28;19909;-72
2022/03/03 02:18:54;;;;;;;;;;;10.30;92.10;;;;;;5078125;28;19919;-72
2022/03/03 02:21:20;;;;;;;;;;;10.30;92.30;;;;;;5078040;28;19995;-73
2022/03/03 02:23:46;;;;;;;;;;;10.30;92.20;;;;;;5078165;28;19958;-72
2022/03/03 02:26:15;;;;;;;;;;;10.30;92.00;;;;;;5077816;28;19912;-72
2022/03/03 02:28:42;;;;;;;;;;;10.30;92.00;;;;;;5060148;28;19958;-73
2022/03/03 02:31:07;;;;;;;;;;;10.30;92.20;;;;;;5077922;28;19915;-73
2022/03/03 02:33:33;;;;;;;;;;;10.30;92.20;;;;;;5077032;28;20353;-73
2022/03/03 02:36:34;;;;;;;;;;;10.30;92.20;;;;;;5059647;28;19980;-73
2022/03/03 02:39:01;;;;;;;;;;;10.30;92.20;;;;;;5015038;28;19944;-73
2022/03/03 02:41:27;;;;;;;;;;;10.30;92.20;;;;;;5057135;28;19909;-73
2022/03/03 02:43:53;;;;;;;;;;;10.30;92.10;;;;;;5077546;28;19970;-73
2022/03/03 02:46:19;;;;;;;;;;;10.30;92.20;;;;;;5064154;28;19908;-73
2022/03/03 02:48:44;;;;;;;;;;;10.20;92.20;;;;;;5059559;28;20375;-73
2022/03/03 02:51:10;;;;;;;;;;;10.20;92.10;;;;;;5059661;28;19909;-73
2022/03/03 02:53:36;;;;;;;;;;;10.20;92.00;;;;;;5077661;28;20383;-73
2022/03/03 02:56:03;;;;;;;;;;;10.30;92.00;;;;;;5077433;28;19921;-72
2022/03/03 02:58:28;;;;;;;;;;;10.20;92.00;;;;;;5077691;28;19908;-73
2022/03/03 03:00:54;;;;;;;;;;;10.20;92.00;;;;;;5077712;28;19912;-73
2022/03/03 03:03:20;;;;;;;;;;;10.20;92.10;;;;;;5073400;28;19908;-73
2022/03/03 03:05:46;;;;;;;;;;;10.20;91.90;;;;;;5059041;28;19964;-73
2022/03/03 03:08:12;;;;;;;;;;;10.20;91.90;;;;;;5077704;28;19908;-73
2022/03/03 03:10:39;;;;;;;;;;;10.20;91.90;;;;;;5077475;28;19909;-73
2022/03/03 03:13:05;;;;;;;;;;;10.20;92.20;;;;;;5077629;28;19909;-73
2022/03/03 03:15:31;;;;;;;;;;;10.30;92.10;;;;;;5077450;28;19919;-73
2022/03/03 03:18:08;;;;;;;;;;;10.20;92.00;;;;;;5059194;28;19995;-73
2022/03/03 03:20:34;;;;;;;;;;;10.20;91.90;;;;;;5059585;28;20324;-73
2022/03/03 03:22:59;;;;;;;;;;;10.20;91.90;;;;;;5077473;28;19912;-73
2022/03/03 03:25:25;;;;;;;;;;;10.30;92.00;;;;;;5059449;28;19908;-73
2022/03/03 03:27:50;;;;;;;;;;;10.30;92.00;;;;;;5059366;28;19952;-73
2022/03/03 03:30:16;;;;;;;;;;;10.20;92.30;;;;;;5077584;28;19966;-73
2022/03/03 03:32:42;;;;;;;;;;;10.20;92.20;;;;;;5076886;28;19919;-73
2022/03/03 03:35:07;;;;;;;;;;;10.20;92.00;;;;;;5059360;28;19919;-73
2022/03/03 03:37:34;;;;;;;;;;;10.20;92.20;;;;;;5077151;28;19909;-73
2022/03/03 03:39:59;;;;;;;;;;;10.20;92.20;;;;;;5059117;28;19908;-72
2022/03/03 03:42:25;;;;;;;;;;;10.20;92.40;;;;;;5077119;28;19909;-72
2022/03/03 03:44:50;;;;;;;;;;;10.20;92.30;;;;;;5070220;28;19982;-73
2022/03/03 03:47:16;;;;;;;;;;;10.20;92.30;;;;;;5073504;28;19965;-73
2022/03/03 03:49:42;;;;;;;;;;;10.20;92.30;;;;;;5062816;28;20050;-73
2022/03/03 03:52:07;;;;;;;;;;;10.20;92.30;;;;;;5062745;28;19933;-73
2022/03/03 03:54:33;;;;;;;;;;;10.20;92.30;;;;;;5080907;28;19912;-73
2022/03/03 03:56:58;;;;;;;;;;;10.20;92.30;;;;;;5080811;28;20425;-73
2022/03/03 03:59:24;;;;;;;;;;;10.20;92.40;;;;;;5080978;28;19969;-73
2022/03/03 04:01:50;;;;;;;;;;;10.30;92.40;;;;;;5062776;28;19908;-73
2022/03/03 04:04:16;;;;;;;;;;;10.30;92.50;;;;;;5072042;28;19909;-73
2022/03/03 04:06:42;;;;;;;;;;;10.30;92.50;;;;;;5080600;28;20007;-73
2022/03/03 04:09:07;;;;;;;;;;;10.30;92.40;;;;;;5080499;28;20287;-73
2022/03/03 04:11:33;;;;;;;;;;;10.30;92.40;;;;;;5080801;28;19915;-73
2022/03/03 04:13:59;;;;;;;;;;;10.30;92.40;;;;;;5062580;28;19909;-73
2022/03/03 04:16:25;;;;;;;;;;;10.30;92.50;;;;;;5080514;28;19908;-73
2022/03/03 04:18:51;;;;;;;;;;;10.30;92.50;;;;;;5062301;28;19916;-73
2022/03/03 04:21:16;;;;;;;;;;;10.30;92.40;;;;;;5080544;28;20321;-73
2022/03/03 04:23:42;;;;;;;;;;;10.30;92.40;;;;;;5080422;28;19908;-73
2022/03/03 04:26:09;;;;;;;;;;;10.30;92.40;;;;;;5080257;28;19915;-73
2022/03/03 04:28:35;;;;;;;;;;;10.30;92.50;;;;;;5062477;28;19908;-73
2022/03/03 04:31:00;;;;;;;;;;;10.30;92.40;;;;;;5080236;28;19916;-73
2022/03/03 04:33:26;;;;;;;;;;;10.30;92.50;;;;;;5079772;28;19915;-73
2022/03/03 04:35:51;;;;;;;;;;;10.30;92.50;;;;;;5080006;28;19916;-73
2022/03/03 04:38:17;;;;;;;;;;;10.30;92.70;;;;;;5080227;28;20264;-73
2022/03/03 04:40:43;;;;;;;;;;;10.30;92.70;;;;;;5079722;28;19913;-73
2022/03/03 04:43:08;;;;;;;;;;;10.30;92.70;;;;;;5080136;28;19908;-73
2022/03/03 04:45:34;;;;;;;;;;;10.30;92.80;;;;;;5066795;28;19970;-73
2022/03/03 04:48:02;;;;;;;;;;;10.30;92.70;;;;;;5079063;28;20209;-73
2022/03/03 04:50:28;;;;;;;;;;;10.30;92.80;;;;;;5061753;28;19931;-72
2022/03/03 04:52:53;;;;;;;;;;;10.30;92.80;;;;;;5079966;28;20042;-73
2022/03/03 04:55:19;;;;;;;;;;;10.30;92.70;;;;;;5079539;28;20279;-73
2022/03/03 04:57:44;;;;;;;;;;;10.30;92.70;;;;;;5079417;28;19908;-73
2022/03/03 05:00:10;;;;;;;;;;;10.40;92.90;;;;;;5079616;28;19909;-73
2022/03/03 05:02:36;;;;;;;;;;;10.30;93.10;;;;;;5061276;28;19913;-73
2022/03/03 05:05:02;;;;;;;;;;;10.40;92.90;;;;;;5057253;28;19908;-73
2022/03/03 05:07:28;;;;;;;;;;;10.40;92.80;;;;;;5079465;28;19915;-73
2022/03/03 05:09:53;;;;;;;;;;;10.40;92.90;;;;;;5079302;28;19912;-73
2022/03/03 05:12:19;;;;;;;;;;;10.40;93.00;;;;;;5079549;28;19908;-73
2022/03/03 05:14:45;;;;;;;;;;;10.40;92.90;;;;;;5061246;28;20287;-73
2022/03/03 05:17:11;;;;;;;;;;;10.40;92.90;;;;;;5079516;28;19973;-73
2022/03/03 05:19:36;;;;;;;;;;;10.40;93.00;;;;;;5078954;28;19908;-73
2022/03/03 05:22:02;;;;;;;;;;;10.40;92.90;;;;;;5079415;28;19915;-75
2022/03/03 05:24:28;;;;;;;;;;;10.40;93.10;;;;;;5061023;28;19908;-73
2022/03/03 05:26:53;;;;;;;;;;;10.40;93.00;;;;;;5079411;28;19934;-73
2022/03/03 05:29:19;;;;;;;;;;;10.40;93.10;;;;;;5079030;28;19909;-73
2022/03/03 05:31:44;;;;;;;;;;;10.40;93.10;;;;;;5079263;28;19954;-73
2022/03/03 05:34:10;;;;;;;;;;;10.40;93.30;;;;;;5078469;28;19915;-73
2022/03/03 05:36:40;;;;;;;;;;;10.40;93.30;;;;;;5078954;28;20050;-73
2022/03/03 05:39:06;;;;;;;;;;;10.40;93.30;;;;;;5060690;28;19915;-73
2022/03/03 05:41:32;;;;;;;;;;;10.40;93.30;;;;;;5078891;28;20360;-73
2022/03/03 05:43:58;;;;;;;;;;;10.40;93.30;;;;;;5078609;28;19951;-73
2022/03/03 05:46:24;;;;;;;;;;;10.50;93.60;;;;;;5065374;28;20294;-73
2022/03/03 05:48:50;;;;;;;;;;;10.40;93.60;;;;;;5060528;28;19914;-73
2022/03/03 05:51:16;;;;;;;;;;;10.40;93.60;;;;;;5081016;28;19909;-73
2022/03/03 05:53:42;;;;;;;;;;;10.40;93.70;;;;;;5078685;28;19913;-73
2022/03/03 05:56:11;;;;;;;;;;;10.40;93.80;;;;;;5078533;28;19919;-73
2022/03/03 05:58:37;;;;;;;;;;;10.40;93.90;;;;;;5078550;28;19964;-73
2022/03/03 06:01:03;;;;;;;;;;;10.40;93.90;;;;;;5060628;28;20331;-73
2022/03/03 06:03:30;;;;;;;;;;;10.30;94.10;;;;;;5078161;28;20376;-73
2022/03/03 06:06:04;;;;;;;;;;;10.30;94.10;;;;;;5060542;28;19915;-73
2022/03/03 06:08:41;;;;;;;;;;;10.30;94.30;;;;;;5077563;28;19908;-74
2022/03/03 06:11:14;;;;;;;;;;;10.30;94.20;;;;;;5060613;28;19909;-74
2022/03/03 06:13:45;;;;;;;;;;;10.30;94.20;;;;;;5078234;28;19908;-76
2022/03/03 06:16:10;;;;;;;;;;;10.30;94.20;;;;;;5060533;28;20018;-77
2022/03/03 06:18:36;;;;;;;;;;;10.30;94.20;;;;;;5077392;28;19909;-82
2022/03/03 06:21:03;;;;;;;;;;;10.30;94.30;;;;;;5077191;28;20295;-81
2022/03/03 06:23:30;;;;;;;;;;;10.30;94.30;;;;;;5077520;28;19912;-80
2022/03/03 06:26:00;;;;;;;;;;;10.30;94.30;;;;;;5059995;28;19916;-75
2022/03/03 06:28:27;;;;;;;;;;;10.30;94.40;;;;;;5078009;28;19935;-81
2022/03/03 06:30:52;;;;;;;;;;;10.30;94.40;;;;;;5060152;28;20367;-78
2022/03/03 06:33:18;;;;;;;;;;;10.30;94.30;;;;;;5077494;28;20009;-81
2022/03/03 06:35:44;;;;;;;;;;;10.30;94.40;;;;;;5059998;28;19917;-80
2022/03/03 06:38:09;;;;;;;;;;;10.30;94.40;;;;;;5060005;28;19908;-78
2022/03/03 06:40:35;;;;;;;;;;;10.30;94.30;;;;;;5077401;28;19909;-80
2022/03/03 06:43:01;;;;;;;;;;;10.30;94.30;;;;;;5077984;28;19958;-78
2022/03/03 06:45:28;;;;;;;;;;;10.30;94.30;;;;;;5065736;28;20281;-78
2022/03/03 06:47:54;;;;;;;;;;;10.30;94.40;;;;;;5076068;28;20042;-75
2022/03/03 06:50:20;;;;;;;;;;;10.30;94.40;;;;;;5077907;28;19908;-73
2022/03/03 06:52:49;;;;;;;;;;;10.30;94.30;;;;;;5077491;28;19915;-79
2022/03/03 06:55:17;;;;;;;;;;;10.30;94.40;;;;;;5077631;28;19912;-75
2022/03/03 06:57:43;;;;;;;;;;;10.30;94.70;;;;;;5059739;28;19916;-77
2022/03/03 07:00:09;;;;;;;;;;;10.30;94.70;;;;;;5059586;28;19909;-77
2022/03/03 07:02:34;;;;;;;;;;;10.30;94.80;;;;;;5037712;28;20586;-77
2022/03/03 07:05:00;;;;;;;;;;;10.30;94.80;;;;;;5060603;28;19908;-80
2022/03/03 07:07:26;;;;;;;;;;;10.30;94.80;;;;;;5076971;28;20291;-81
2022/03/03 07:09:53;;;;;;;;;;;10.30;94.70;;;;;;5059172;28;19917;-81
2022/03/03 07:12:20;;;;;;;;;;;10.40;95.10;;;;;;5059128;28;19912;-81
2022/03/03 07:14:45;;;;;;;;;;;10.40;95.10;;;;;;5076500;28;20038;-81
2022/03/03 07:17:28;;;;;;;;;;;10.40;95.00;;;;;;5076830;28;19956;-81
2022/03/03 07:20:04;;;;;;;;;;;10.40;94.90;;;;;;5075334;28;19913;-81
2022/03/03 07:22:33;;;;;;;;;;;10.40;94.80;;;;;;5060535;28;20003;-81
2022/03/03 07:25:03;;;;;;;;;;;10.40;94.90;;;;;;5080636;28;19912;-81
2022/03/03 07:27:29;;;;;;;;;;;10.40;94.90;;;;;;5078181;28;19908;-81
2022/03/03 07:29:56;;;;;;;;;;;10.40;94.90;;;;;;5062855;28;20003;-82
2022/03/03 07:32:25;;;;;;;;;;;10.40;94.90;;;;;;5078409;28;20344;-81
2022/03/03 07:34:56;;;;;;;;;;;10.50;95.10;;;;;;5062647;28;20016;-81
2022/03/03 07:37:25;;;;;;;;;;;10.50;95.70;;;;;;5080294;28;20015;-82
2022/03/03 07:39:53;;;;;;;;;;;10.50;95.20;;;;;;5078519;28;19912;-78
2022/03/03 07:42:19;;;;;;;;;;;10.50;95.10;;;;;;5080539;28;20387;-78
2022/03/03 07:44:45;;;;;;;;;;;10.50;95.20;;;;;;5074617;28;19921;-78
2022/03/03 07:47:11;;;;;;;;;;;10.50;95.10;;;;;;5073522;28;19913;-78
2022/03/03 07:49:38;;;;;;;;;;;10.50;95.00;;;;;;5078040;28;21212;-78
2022/03/03 07:52:05;;;;;;;;;;;10.50;95.10;;;;;;5078963;28;19916;-78
2022/03/03 07:54:31;;;;;;;;;;;10.60;95.20;;;;;;5080184;28;20463;-78
2022/03/03 07:56:58;;;;;;;;;;;10.60;95.10;;;;;;5080692;28;19963;-78
2022/03/03 07:59:32;;;;;;;;;;;10.60;95.00;;;;;;5062794;28;19958;-78
2022/03/03 08:02:00;;;;;;;;;;;10.70;95.00;;;;;;5080495;28;19954;-78
2022/03/03 08:04:29;;;;;;;;;;;10.70;95.00;;;;;;5076146;28;19920;-78
2022/03/03 08:07:03;;;;;;;;;;;10.70;94.90;;;;;;5062530;28;19909;-78
2022/03/03 08:09:30;;;;;;;;;;;10.70;94.80;;;;;;5080562;28;19954;-78
2022/03/03 08:11:57;;;;;;;;;;;10.80;94.80;;;;;;5080305;28;19970;-78
2022/03/03 08:14:23;;;;;;;;;;;10.80;95.00;;;;;;5062492;28;19923;-78
2022/03/03 08:16:49;;;;;;;;;;;10.80;94.80;;;;;;5063760;28;19909;-78
2022/03/03 08:19:16;;;;;;;;;;;10.80;94.80;;;;;;5080144;28;19995;-78
2022/03/03 08:21:45;;;;;;;;;;;10.80;94.90;;;;;;5080330;28;20290;-78
2022/03/03 08:24:14;;;;;;;;;;;10.80;94.80;;;;;;5080269;28;20290;-78
2022/03/03 08:26:40;;;;;;;;;;;10.90;94.90;;;;;;5062073;28;19916;-78
2022/03/03 08:29:06;;;;;;;;;;;10.90;95.00;;;;;;5080324;28;19944;-78
2022/03/03 08:31:37;;;;;;;;;;;10.90;95.10;;;;;;5079354;28;19915;-78
2022/03/03 08:34:10;;;;;;;;;;;10.90;95.10;;;;;;5078948;28;19912;-78
2022/03/03 08:36:45;;;;;;;;;;;11.00;95.20;;;;;;5079437;28;19972;-78
2022/03/03 08:39:12;;;;;;;;;;;11.00;95.00;;;;;;5079572;28;20267;-78
2022/03/03 08:41:39;;;;;;;;;;;11.00;95.10;;;;;;5080187;28;19908;-78
2022/03/03 08:44:07;;;;;;;;;;;11.00;95.00;;;;;;5078788;28;19917;-78
2022/03/03 08:46:33;;;;;;;;;;;11.00;94.90;;;;;;5069660;28;19908;-78
2022/03/03 08:49:00;;;;;;;;;;;11.10;95.10;;;;;;5079625;28;19909;-78
2022/03/03 08:51:26;;;;;;;;;;;11.10;94.80;;;;;;5080132;28;19984;-78
2022/03/03 08:53:52;;;;;;;;;;;11.10;94.80;;;;;;5079684;28;19912;-78
2022/03/03 08:56:18;;;;;;;;;;;11.10;94.80;;;;;;5079596;28;19962;-78
2022/03/03 08:58:44;;;;;;;;;;;11.10;94.80;;;;;;5061494;28;20363;-78
2022/03/03 09:01:10;;;;;;;;;;;11.10;94.60;;;;;;5079868;28;20376;-78
2022/03/03 09:03:35;;;;;;;;;;;11.20;94.70;;;;;;5079005;28;19970;-78
2022/03/03 09:06:01;;;;;;;;;;;11.20;94.70;;;;;;5061573;28;20003;-78
2022/03/03 09:08:27;;;;;;;;;;;11.20;95.00;;;;;;5079212;28;19908;-78
2022/03/03 09:10:53;;;;;;;;;;;11.20;94.70;;;;;;5061320;28;19915;-79
2022/03/03 09:13:18;;;;;;;;;;;11.20;94.60;;;;;;5079351;28;19973;-79
2022/03/03 09:15:44;;;;;;;;;;;11.20;94.60;;;;;;5079402;28;20394;-78
2022/03/03 09:18:10;;;;;;;;;;;11.20;94.70;;;;;;5078837;28;20001;-78
2022/03/03 09:20:36;;;;;;;;;;;11.20;94.70;;;;;;5077165;28;20004;-78
2022/03/03 09:23:02;;;;;;;;;;;11.30;94.60;;;;;;5078803;28;19912;-78
2022/03/03 09:25:28;;;;;;;;;;;11.30;94.70;;;;;;5077235;28;19952;-78
2022/03/03 09:27:54;;;;;;;;;;;11.30;94.70;;;;;;5079115;28;19913;-79
2022/03/03 09:30:21;;;;;;;;;;;11.30;94.80;;;;;;5079180;28;19908;-78
2022/03/03 09:32:47;;;;;;;;;;;11.30;94.70;;;;;;5078372;28;19915;-78
2022/03/03 09:35:12;;;;;;;;;;;11.40;95.00;;;;;;5078045;28;19920;-78
2022/03/03 09:37:38;;;;;;;;;;;11.40;94.90;;;;;;5060564;28;19982;-78
2022/03/03 09:40:05;;;;;;;;;;;11.40;94.90;;;;;;5078661;28;20248;-78
2022/03/03 09:42:33;;;;;;;;;;;11.40;94.80;;;;;;5078470;28;19909;-78
2022/03/03 09:45:10;;;;;;;;;;;11.40;94.80;;;;;;5070436;28;20011;-78
2022/03/03 09:47:37;;;;;;;;;;;11.40;94.80;;;;;;5074212;28;20292;-78
2022/03/03 09:50:03;;;;;;;;;;;11.50;94.80;;;;;;5041100;28;19909;-78
2022/03/03 09:52:30;;;;;;;;;;;11.50;94.80;;;;;;5060563;28;19954;-78
2022/03/03 09:54:57;;;;;;;;;;;11.50;94.70;;;;;;5060669;28;19920;-78
2022/03/03 09:57:24;;;;;;;;;;;11.50;94.70;;;;;;5078384;28;20035;-78
2022/03/03 09:59:52;;;;;;;;;;;11.60;94.80;;;;;;5078476;28;19909;-78
2022/03/03 10:02:18;;;;;;;;;;;11.60;94.80;;;;;;5059969;28;19916;-78
2022/03/03 10:04:43;;;;;;;;;;;11.60;94.90;;;;;;5078271;28;20035;-78
2022/03/03 10:07:10;;;;;;;;;;;11.60;94.80;;;;;;5078473;28;19915;-78
2022/03/03 10:12:26;;;;;;;;;;;11.70;94.80;;;;;;5065126;28;19916;-78
2022/03/03 10:14:56;;;;;;;;;;;11.70;94.90;;;;;;5077983;28;20357;-78
2022/03/03 10:17:33;;;;;;;;;;;11.80;94.80;;;;;;5078061;28;19912;-78
2022/03/03 10:20:02;;;;;;;;;;;11.80;94.70;;;;;;5077913;28;20016;-78
2022/03/03 10:22:37;;;;;;;;;;;11.90;94.80;;;;;;5060092;28;19908;-78
2022/03/03 10:25:03;;;;;;;;;;;11.90;94.60;;;;;;5059801;28;20009;-78
2022/03/03 10:27:31;;;;;;;;;;;11.90;94.50;;;;;;5077974;28;19909;-78
2022/03/03 10:29:57;;;;;;;;;;;12.00;94.40;;;;;;5077827;28;19916;-78
2022/03/03 10:32:23;;;;;;;;;;;12.00;94.30;;;;;;5075870;28;20608;-78
2022/03/03 10:34:53;;;;;;;;;;;12.00;94.40;;;;;;5077211;28;19913;-79
2022/03/03 10:37:23;;;;;;;;;;;12.10;94.40;;;;;;5077839;28;19909;-78
2022/03/03 10:39:54;;;;;;;;;;;12.10;94.30;;;;;;5064972;28;19973;-78
2022/03/03 10:42:20;;;;;;;;;;;12.10;94.30;;;;;;5077574;28;19915;-78
2022/03/03 10:44:47;;;;;;;;;;;12.10;94.20;;;;;;5049919;28;20308;-78
2022/03/03 10:47:16;;;;;;;;;;;12.20;94.20;;;;;;5050244;28;20268;-78
2022/03/03 10:49:44;;;;;;;;;;;12.20;94.10;;;;;;5043461;28;20434;-78
2022/03/03 10:52:15;;;;;;;;;;;12.20;94.00;;;;;;5057445;28;20434;-78
2022/03/03 10:54:48;;;;;;;;;;;12.30;94.10;;;;;;5057044;28;20398;-78
2022/03/03 10:57:28;;;;;;;;;;;12.20;94.00;;;;;;5057546;28;19908;-78
2022/03/03 10:59:54;;;;;;;;;;;12.40;94.00;;;;;;5057500;28;19913;-78
2022/03/03 11:02:20;;;;;;;;;;;12.40;94.00;;;;;;5057002;28;19909;-78
2022/03/03 11:04:46;;;;;;;;;;;12.40;94.00;;;;;;5053126;28;19940;-78
2022/03/03 11:07:14;;;;;;;;;;;12.50;94.20;;;;;;5057348;28;19912;-78
2022/03/03 11:09:39;;;;;;;;;;;12.50;94.10;;;;;;5057336;28;19909;-78
2022/03/03 11:12:09;;;;;;;;;;;12.60;94.00;;;;;;5055819;28;19967;-79
2022/03/03 11:14:34;;;;;;;;;;;12.60;93.90;;;;;;5057049;28;19917;-78
2022/03/03 11:17:00;;;;;;;;;;;12.70;93.80;;;;;;5057148;28;20403;-77
2022/03/03 11:19:26;;;;;;;;;;;12.70;93.90;;;;;;5056528;28;19968;-78
2022/03/03 11:21:52;;;;;;;;;;;12.80;94.40;;;;;;5055841;28;20391;-77
2022/03/03 11:24:19;;;;;;;;;;;12.70;93.90;;;;;;5057128;28;19909;-77
2022/03/03 11:26:45;;;;;;;;;;;12.70;93.70;;;;;;5057231;28;20386;-77
2022/03/03 11:29:12;;;;;;;;;;;12.60;93.10;;;;;;5057338;28;19909;-76
2022/03/03 11:31:39;;;;;;;;;;;12.50;92.90;;;;;;5057205;28;19909;-77
2022/03/03 11:34:21;;;;;;;;;;;12.50;92.80;;;;;;5050630;28;20368;-77
2022/03/03 11:36:47;;;;;;;;;;;12.40;92.70;;;;;;5056990;28;20003;-77
2022/03/03 11:39:32;;;;;;;;;;;12.30;92.70;;;;;;5056750;28;19909;-77
2022/03/03 11:42:14;;;;;;;;;;;12.30;92.70;;;;;;5057227;28;19909;-77
2022/03/03 11:44:40;;;;;;;;;;;12.30;92.70;;;;;;5048243;28;19921;-77
2022/03/03 11:47:19;;;;;;;;;;;12.30;92.70;;;;;;5069220;28;20049;-77
2022/03/03 11:50:07;;;;;;;;;;;12.30;92.70;;;;;;5080328;28;19916;-77
2022/03/03 11:52:33;;;;;;;;;;;12.30;92.60;;;;;;5074503;28;20395;-77
2022/03/03 11:55:19;;;;;;;;;;;12.40;92.40;;;;;;5076909;28;19913;-77
2022/03/03 11:57:45;;;;;;;;;;;12.30;92.40;;;;;;5079401;28;20347;-77
2022/03/03 12:00:17;;;;;;;;;;;12.30;92.40;;;;;;5076912;28;19931;-77
2022/03/03 12:02:52;;;;;;;;;;;12.40;92.30;;;;;;5076674;28;20360;-77
2022/03/03 12:05:27;;;;;;;;;;;12.40;92.20;;;;;;5073147;28;19917;-77
2022/03/03 12:07:56;;;;;;;;;;;12.40;92.10;;;;;;5078640;28;19916;-76
2022/03/03 12:10:22;;;;;;;;;;;12.30;92.00;;;;;;5063325;28;20318;-79
2022/03/03 12:12:48;;;;;;;;;;;12.30;92.00;;;;;;5077420;28;19958;-76
2022/03/03 12:15:14;;;;;;;;;;;12.30;92.00;;;;;;5079877;28;20325;-76
2022/03/03 12:17:54;;;;;;;;;;;12.30;91.90;;;;;;5074673;28;19916;-80
2022/03/03 12:20:23;;;;;;;;;;;12.20;91.90;;;;;;5078431;28;19908;-78
2022/03/03 12:23:23;;;;;;;;;;;12.20;92.00;;;;;;5062129;28;19915;-78
2022/03/03 12:25:54;;;;;;;;;;;12.20;92.00;;;;;;5073827;28;19912;-80
2022/03/03 12:28:22;;;;;;;;;;;12.20;92.00;;;;;;5079933;28;19955;-81
2022/03/03 12:30:50;;;;;;;;;;;12.20;92.00;;;;;;5080158;28;19917;-79
2022/03/03 12:33:22;;;;;;;;;;;12.20;91.90;;;;;;5072786;28;19954;-82
2022/03/03 12:35:48;;;;;;;;;;;12.20;92.10;;;;;;5079667;28;19959;-80
2022/03/03 12:38:13;;;;;;;;;;;12.20;91.90;;;;;;5079892;28;20282;-80
2022/03/03 12:40:39;;;;;;;;;;;12.20;91.80;;;;;;5078724;28;20046;-80
2022/03/03 12:43:19;;;;;;;;;;;12.20;91.80;;;;;;5079780;28;19981;-80
2022/03/03 12:45:45;;;;;;;;;;;12.20;91.80;;;;;;5071420;28;19924;-81
2022/03/03 12:48:11;;;;;;;;;;;12.20;91.70;;;;;;5079483;28;19915;-81
2022/03/03 12:50:37;;;;;;;;;;;12.10;91.60;;;;;;5079699;28;20371;-82
2022/03/03 12:53:05;;;;;;;;;;;12.20;91.70;;;;;;5079537;28;19909;-79
2022/03/03 12:55:32;;;;;;;;;;;12.20;91.90;;;;;;5079480;28;19959;-79
2022/03/03 12:57:58;;;;;;;;;;;12.20;91.80;;;;;;5079578;28;19915;-77
2022/03/03 13:00:24;;;;;;;;;;;12.30;91.80;;;;;;5061512;28;19958;-79
2022/03/03 13:02:54;;;;;;;;;;;12.30;91.70;;;;;;5079205;28;19909;-82
2022/03/03 13:05:35;;;;;;;;;;;12.40;91.70;;;;;;5074834;28;19915;-84
2022/03/03 13:08:01;;;;;;;;;;;12.40;91.50;;;;;;5079046;28;19930;-83
2022/03/03 13:10:27;;;;;;;;;;;12.40;91.40;;;;;;5070699;28;19915;-82
2022/03/03 13:12:54;;;;;;;;;;;12.40;91.40;;;;;;5079278;28;19931;-82
2022/03/03 13:15:27;;;;;;;;;;;12.40;91.40;;;;;;5079052;28;19919;-83
2022/03/03 13:17:57;;;;;;;;;;;12.40;91.50;;;;;;5077389;28;19963;-84
2022/03/03 13:20:23;;;;;;;;;;;12.40;91.50;;;;;;5079319;28;20294;-83
2022/03/03 13:22:49;;;;;;;;;;;12.50;91.60;;;;;;5077146;28;19944;-82
2022/03/03 13:25:18;;;;;;;;;;;12.50;91.50;;;;;;5078678;28;19955;-81
2022/03/03 13:27:47;;;;;;;;;;;12.50;91.40;;;;;;5078781;28;20363;-81
2022/03/03 13:30:13;;;;;;;;;;;12.50;91.40;;;;;;5079014;28;19928;-81
2022/03/03 13:32:45;;;;;;;;;;;12.60;91.30;;;;;;5078041;28;19974;-81
2022/03/03 13:35:11;;;;;;;;;;;12.60;91.20;;;;;;5078705;28;19912;-81
2022/03/03 13:37:37;;;;;;;;;;;12.60;91.30;;;;;;5078617;28;20430;-82
2022/03/03 13:40:17;;;;;;;;;;;12.70;91.20;;;;;;5073010;28;19978;-81
2022/03/03 13:42:43;;;;;;;;;;;12.70;91.10;;;;;;5077171;28;19909;-81
2022/03/03 13:45:08;;;;;;;;;;;12.70;90.90;;;;;;5068104;28;19942;-80
2022/03/03 13:47:44;;;;;;;;;;;12.70;90.80;;;;;;5077900;28;19960;-81
2022/03/03 13:50:20;;;;;;;;;;;12.70;90.90;;;;;;5069610;28;19915;-80
2022/03/03 13:52:45;;;;;;;;;;;12.70;90.90;;;;;;5078100;28;19915;-80
2022/03/03 13:55:12;;;;;;;;;;;12.80;91.00;;;;;;5078186;28;19912;-80
2022/03/03 13:57:39;;;;;;;;;;;12.80;91.10;;;;;;5078203;28;19908;-80
2022/03/03 14:00:08;;;;;;;;;;;12.80;91.00;;;;;;5078345;28;19908;-80
2022/03/03 14:02:33;;;;;;;;;;;12.80;90.90;;;;;;5074247;28;19991;-80
2022/03/03 14:05:00;;;;;;;;;;;12.80;90.90;;;;;;5076162;28;19947;-80
2022/03/03 14:07:27;;;;;;;;;;;12.80;90.70;;;;;;5076385;28;19916;-80
2022/03/03 14:10:03;;;;;;;;;;;12.80;90.70;;;;;;5077729;28;20015;-80
2022/03/03 14:12:29;;;;;;;;;;;12.80;90.70;;;;;;5080820;28;19908;-80
2022/03/03 14:14:55;;;;;;;;;;;12.80;90.80;;;;;;5064956;28;20013;-80
2022/03/03 14:17:21;;;;;;;;;;;12.80;90.80;;;;;;5059618;28;19908;-80
2022/03/03 14:19:46;;;;;;;;;;;12.80;90.70;;;;;;5077942;28;19908;-80